Time;durP1;ratioP1;P1;durP2;ratioP2;P2;SDS_P1;SDS_P2;PMS_P1;PMS_P2;Temp;Humidity;BMP_temperature;BMP_pressure;BME280_temperature;BME280_humidity;BME280_pressure;Samples;Min_cycle;Max_cycle;Signal;HPM_P1;HPM_P2
2022/05/19 00:04:05;;;;;;;2.77;1.53;;;;;;;;;;5043848;28;20220;-85
2022/05/19 00:07:10;;;;;;;4.90;2.00;;;;;;;;;;5021735;28;20647;-85
2022/05/19 00:10:14;;;;;;;2.67;1.30;;;;;;;;;;5021614;28;20204;-85
2022/05/19 00:13:18;;;;;;;4.53;1.40;;;;;;;;;;5044031;28;20216;-85
2022/05/19 00:16:23;;;;;;;4.57;1.47;;;;;;;;;;5021388;28;20188;-85
2022/05/19 00:19:26;;;;;;;2.53;1.43;;;;;;;;;;5032621;28;20196;-85
2022/05/19 00:22:31;;;;;;;2.37;1.73;;;;;;;;;;5043522;28;20224;-86
2022/05/19 00:25:35;;;;;;;3.20;1.30;;;;;;;;;;5021497;28;20180;-85
2022/05/19 00:28:39;;;;;;;2.43;1.67;;;;;;;;;;5043507;28;20184;-85
2022/05/19 00:31:43;;;;;;;1.50;1.30;;;;;;;;;;5043230;28;20195;-85
2022/05/19 00:34:47;;;;;;;4.10;1.50;;;;;;;;;;5031825;28;20179;-85
2022/05/19 00:37:51;;;;;;;2.60;1.77;;;;;;;;;;5032297;28;20643;-85
2022/05/19 00:40:58;;;;;;;3.73;1.40;;;;;;;;;;5032416;28;20647;-85
2022/05/19 00:44:04;;;;;;;5.77;1.80;;;;;;;;;;5031927;28;20216;-85
2022/05/19 00:47:19;;;;;;;4.67;1.60;;;;;;;;;;5032412;28;20635;-85
2022/05/19 00:50:26;;;;;;;2.70;1.40;;;;;;;;;;5032249;28;20180;-85
2022/05/19 00:53:51;;;;;;;3.40;1.63;;;;;;;;;;5043222;28;20211;-85
2022/05/19 00:57:06;;;;;;;2.93;1.60;;;;;;;;;;5031762;28;20528;-85
2022/05/19 01:00:15;;;;;;;4.03;1.53;;;;;;;;;;5020851;28;20188;-85
2022/05/19 01:03:21;;;;;;;2.13;1.60;;;;;;;;;;5031503;28;20212;-85
2022/05/19 01:06:28;;;;;;;2.20;1.40;;;;;;;;;;5012254;28;20181;-85
2022/05/19 01:09:35;;;;;;;3.97;1.90;;;;;;;;;;5012105;28;20176;-85
2022/05/19 01:12:40;;;;;;;5.17;1.73;;;;;;;;;;5017906;28;20184;-85
2022/05/19 01:15:50;;;;;;;3.07;1.77;;;;;;;;;;5042781;28;20552;-85
2022/05/19 01:18:56;;;;;;;4.23;1.60;;;;;;;;;;5031456;28;20196;-85
2022/05/19 01:22:21;;;;;;;3.37;1.40;;;;;;;;;;5030376;28;20204;-83
2022/05/19 01:25:36;;;;;;;2.27;1.33;;;;;;;;;;5011859;28;20185;-85
2022/05/19 01:28:40;;;;;;;4.60;1.60;;;;;;;;;;5040882;28;20540;-85
2022/05/19 01:31:57;;;;;;;3.17;1.60;;;;;;;;;;5031648;28;20173;-85
2022/05/19 01:35:01;;;;;;;4.73;1.60;;;;;;;;;;5023088;28;20664;-85
2022/05/19 01:38:24;;;;;;;3.43;1.47;;;;;;;;;;5022909;28;20181;-85
2022/05/19 01:42:13;;;;;;;3.33;1.40;;;;;;;;;;5033988;28;20209;-85
2022/05/19 01:45:40;;;;;;;2.43;1.40;;;;;;;;;;5034361;28;20177;-84
2022/05/19 01:49:12;;;;;;;2.67;1.80;;;;;;;;;;5034873;28;20639;-85
2022/05/19 01:52:33;;;;;;;3.53;1.53;;;;;;;;;;5039649;28;20188;-85
2022/05/19 01:55:57;;;;;;;2.03;1.40;;;;;;;;;;5031065;28;20180;-85
2022/05/19 01:59:16;;;;;;;2.73;1.57;;;;;;;;;;5030814;28;20201;-85
2022/05/19 02:02:39;;;;;;;1.47;1.27;;;;;;;;;;5019461;28;20679;-85
2022/05/19 02:05:46;;;;;;;4.27;1.63;;;;;;;;;;5019812;28;20189;-84
2022/05/19 02:08:54;;;;;;;3.23;1.40;;;;;;;;;;5019216;28;20195;-85
2022/05/19 02:12:00;;;;;;;6.20;1.57;;;;;;;;;;5019507;28;20188;-85
2022/05/19 02:15:10;;;;;;;4.43;1.50;;;;;;;;;;5011120;28;20181;-85
2022/05/19 02:18:16;;;;;;;1.60;1.30;;;;;;;;;;5022468;28;20180;-84
2022/05/19 02:21:20;;;;;;;2.87;1.47;;;;;;;;;;5018591;28;20188;-85
2022/05/19 02:24:26;;;;;;;7.23;1.87;;;;;;;;;;5010272;28;20227;-84
2022/05/19 02:27:44;;;;;;;2.30;1.50;;;;;;;;;;5033055;28;20200;-84
2022/05/19 02:30:49;;;;;;;1.70;1.40;;;;;;;;;;5029946;28;20540;-85
2022/05/19 02:33:52;;;;;;;2.67;1.80;;;;;;;;;;5018147;28;20220;-85
2022/05/19 02:36:56;;;;;;;4.47;1.83;;;;;;;;;;5021914;28;20173;-85
2022/05/19 02:40:02;;;;;;;2.60;1.90;;;;;;;;;;4999289;28;20196;-85
2022/05/19 02:43:08;;;;;;;2.67;1.37;;;;;;;;;;5010395;28;20233;-85
2022/05/19 02:46:11;;;;;;;3.73;1.63;;;;;;;;;;5021951;28;20181;-84
2022/05/19 02:49:16;;;;;;;2.33;1.60;;;;;;;;;;5019163;28;20180;-84
2022/05/19 02:52:20;;;;;;;5.13;1.33;;;;;;;;;;5029850;28;20175;-85
2022/05/19 02:55:25;;;;;;;2.33;1.30;;;;;;;;;;5019357;28;20184;-84
2022/05/19 02:58:29;;;;;;;4.17;1.60;;;;;;;;;;5030376;28;20196;-84
2022/05/19 03:01:33;;;;;;;2.67;1.47;;;;;;;;;;5029639;28;20192;-85
2022/05/19 03:04:38;;;;;;;3.23;1.80;;;;;;;;;;5030455;28;20702;-85
2022/05/19 03:07:42;;;;;;;3.87;1.43;;;;;;;;;;5018702;28;20180;-84
2022/05/19 03:10:47;;;;;;;5.03;1.73;;;;;;;;;;5015083;28;20631;-84
2022/05/19 03:13:51;;;;;;;2.07;1.50;;;;;;;;;;5040969;28;20215;-84
2022/05/19 03:16:55;;;;;;;2.30;1.83;;;;;;;;;;5030115;28;20176;-84
2022/05/19 03:19:59;;;;;;;4.40;1.60;;;;;;;;;;5018603;28;20192;-84
2022/05/19 03:23:03;;;;;;;3.00;1.80;;;;;;;;;;5016178;28;20638;-84
2022/05/19 03:26:07;;;;;;;2.43;1.30;;;;;;;;;;5018523;28;20199;-84
2022/05/19 03:29:11;;;;;;;6.63;1.53;;;;;;;;;;5019030;28;20196;-84
2022/05/19 03:32:17;;;;;;;5.63;1.63;;;;;;;;;;5041177;28;20200;-85
2022/05/19 03:35:21;;;;;;;1.63;1.27;;;;;;;;;;5029634;28;20188;-85
2022/05/19 03:38:26;;;;;;;5.20;2.20;;;;;;;;;;5030364;28;20181;-84
2022/05/19 03:41:30;;;;;;;1.90;1.50;;;;;;;;;;5030219;28;20196;-85
2022/05/19 03:44:35;;;;;;;2.97;1.67;;;;;;;;;;5041067;28;20208;-84
2022/05/19 03:47:39;;;;;;;4.23;1.43;;;;;;;;;;5013418;28;20663;-84
2022/05/19 03:50:44;;;;;;;2.57;1.40;;;;;;;;;;5017057;28;20187;-84
2022/05/19 03:53:50;;;;;;;3.50;1.43;;;;;;;;;;5022151;28;20208;-85
2022/05/19 03:56:54;;;;;;;3.33;1.50;;;;;;;;;;5045028;28;20176;-85
2022/05/19 03:59:58;;;;;;;3.17;1.77;;;;;;;;;;5033263;28;20192;-85
2022/05/19 04:03:03;;;;;;;2.87;1.50;;;;;;;;;;5002573;28;20228;-84
2022/05/19 04:06:07;;;;;;;3.27;1.50;;;;;;;;;;5033681;28;20204;-84
2022/05/19 04:09:12;;;;;;;3.60;1.60;;;;;;;;;;5044619;28;20180;-84
2022/05/19 04:12:20;;;;;;;4.83;1.43;;;;;;;;;;5021062;28;20184;-84
2022/05/19 04:15:24;;;;;;;4.87;1.50;;;;;;;;;;5033331;28;20184;-84
2022/05/19 04:18:29;;;;;;;3.10;1.47;;;;;;;;;;5033124;28;20172;-84
2022/05/19 04:21:33;;;;;;;4.40;1.60;;;;;;;;;;5032586;28;20192;-85
2022/05/19 04:24:37;;;;;;;2.80;1.30;;;;;;;;;;5043435;28;20219;-84
2022/05/19 04:27:41;;;;;;;2.07;1.50;;;;;;;;;;5006040;28;20204;-82
2022/05/19 04:30:45;;;;;;;1.90;1.47;;;;;;;;;;5022563;28;20635;-82
2022/05/19 04:33:49;;;;;;;4.20;1.50;;;;;;;;;;5045128;28;20216;-82
2022/05/19 04:36:53;;;;;;;2.07;1.30;;;;;;;;;;5044724;28;20188;-82
2022/05/19 04:40:00;;;;;;;2.50;1.40;;;;;;;;;;5033978;28;20204;-82
2022/05/19 04:43:06;;;;;;;2.73;1.40;;;;;;;;;;5022207;28;20232;-82
2022/05/19 04:46:10;;;;;;;1.60;1.30;;;;;;;;;;5021266;28;20192;-83
2022/05/19 04:49:14;;;;;;;3.43;2.00;;;;;;;;;;5033438;28;20196;-83
2022/05/19 04:52:20;;;;;;;1.83;1.20;;;;;;;;;;5045446;28;20180;-84
2022/05/19 04:55:25;;;;;;;2.50;1.40;;;;;;;;;;5022196;28;20204;-82
2022/05/19 04:58:30;;;;;;;3.17;1.33;;;;;;;;;;5021503;28;20192;-84
2022/05/19 05:01:33;;;;;;;3.73;1.40;;;;;;;;;;5014366;28;20181;-83
2022/05/19 05:04:38;;;;;;;3.63;1.37;;;;;;;;;;5002917;28;20204;-82
2022/05/19 05:07:43;;;;;;;13.30;1.77;;;;;;;;;;5043963;28;20188;-82
2022/05/19 05:10:47;;;;;;;3.60;1.30;;;;;;;;;;5033758;28;20183;-82
2022/05/19 05:13:51;;;;;;;2.97;1.40;;;;;;;;;;5045618;28;20204;-84
2022/05/19 05:16:55;;;;;;;4.13;1.70;;;;;;;;;;5043844;28;20188;-85
2022/05/19 05:19:59;;;;;;;1.60;1.50;;;;;;;;;;5013736;28;20209;-82
2022/05/19 05:23:04;;;;;;;2.27;1.10;;;;;;;;;;5045206;28;20227;-83
2022/05/19 05:26:09;;;;;;;2.03;1.10;;;;;;;;;;5021899;28;20176;-82
2022/05/19 05:29:14;;;;;;;1.73;1.43;;;;;;;;;;5022928;28;20192;-83
2022/05/19 05:32:18;;;;;;;3.17;1.30;;;;;;;;;;5033459;28;20200;-83
2022/05/19 05:35:22;;;;;;;3.47;1.20;;;;;;;;;;5013959;28;20192;-83
2022/05/19 05:38:26;;;;;;;3.23;1.37;;;;;;;;;;5023188;28;20176;-83
2022/05/19 05:41:30;;;;;;;1.53;1.20;;;;;;;;;;5022638;28;20532;-83
2022/05/19 05:44:34;;;;;;;3.10;1.40;;;;;;;;;;5032821;28;20717;-83
2022/05/19 05:47:38;;;;;;;2.00;1.30;;;;;;;;;;5033842;28;20184;-82
2022/05/19 05:50:42;;;;;;;2.03;1.27;;;;;;;;;;5034867;28;20172;-83
2022/05/19 05:53:47;;;;;;;3.73;1.37;;;;;;;;;;5022713;28;20556;-83
2022/05/19 05:56:52;;;;;;;2.60;1.50;;;;;;;;;;5045100;28;20180;-83
2022/05/19 05:59:56;;;;;;;2.03;1.30;;;;;;;;;;5023927;28;20196;-82
2022/05/19 06:03:00;;;;;;;4.33;2.03;;;;;;;;;;5032714;28;20228;-83
2022/05/19 06:06:04;;;;;;;2.30;1.40;;;;;;;;;;5004648;28;20180;-84
2022/05/19 06:09:09;;;;;;;1.93;1.40;;;;;;;;;;5012935;28;20184;-84
2022/05/19 06:12:13;;;;;;;6.20;1.50;;;;;;;;;;5021664;28;20192;-83
2022/05/19 06:15:17;;;;;;;4.03;1.50;;;;;;;;;;5046830;28;20180;-83
2022/05/19 06:18:22;;;;;;;3.57;1.73;;;;;;;;;;5024806;28;20176;-82
2022/05/19 06:21:27;;;;;;;6.67;1.60;;;;;;;;;;5025525;28;20200;-82
2022/05/19 06:24:32;;;;;;;3.83;1.50;;;;;;;;;;5034734;28;20227;-83
2022/05/19 06:27:36;;;;;;;3.70;1.60;;;;;;;;;;5034806;28;20172;-82
2022/05/19 06:30:42;;;;;;;2.50;1.80;;;;;;;;;;5033787;28;20191;-83
2022/05/19 06:33:46;;;;;;;4.67;1.43;;;;;;;;;;5021527;28;20216;-83
2022/05/19 06:36:50;;;;;;;2.77;1.67;;;;;;;;;;5033884;28;20189;-83
2022/05/19 06:39:55;;;;;;;4.83;1.40;;;;;;;;;;5023394;28;20188;-83
2022/05/19 06:42:59;;;;;;;4.83;1.50;;;;;;;;;;5023204;28;20220;-82
2022/05/19 06:46:04;;;;;;;2.03;1.57;;;;;;;;;;5021801;28;20552;-83
2022/05/19 06:49:09;;;;;;;4.33;1.80;;;;;;;;;;5029294;28;20204;-83
2022/05/19 06:52:16;;;;;;;3.70;1.40;;;;;;;;;;5034185;28;20200;-84
2022/05/19 06:55:22;;;;;;;2.70;1.40;;;;;;;;;;5011795;28;20181;-84
2022/05/19 06:58:27;;;;;;;5.13;2.03;;;;;;;;;;5013646;28;20176;-83
2022/05/19 07:01:31;;;;;;;4.37;1.70;;;;;;;;;;5017508;28;20196;-83
2022/05/19 07:04:36;;;;;;;3.10;1.53;;;;;;;;;;5025037;28;20224;-83
2022/05/19 07:07:41;;;;;;;4.53;1.63;;;;;;;;;;5035453;28;20184;-83
2022/05/19 07:10:45;;;;;;;4.07;1.97;;;;;;;;;;5036859;28;20195;-83
2022/05/19 07:13:52;;;;;;;4.20;1.77;;;;;;;;;;5034365;28;20682;-82
2022/05/19 07:16:56;;;;;;;4.60;1.80;;;;;;;;;;5027517;28;20172;-83
2022/05/19 07:23:28;;;;;;;7.70;1.80;;;;;;;;;;5041257;28;20228;-83
2022/05/19 07:26:32;;;;;;;3.37;1.67;;;;;;;;;;5042758;28;20192;-83
2022/05/19 07:29:36;;;;;;;3.33;2.10;;;;;;;;;;5032460;28;20184;-83
2022/05/19 07:32:41;;;;;;;6.47;1.90;;;;;;;;;;5031301;28;20172;-84
2022/05/19 07:35:46;;;;;;;2.00;1.70;;;;;;;;;;5034251;28;20536;-83
2022/05/19 07:38:50;;;;;;;3.80;1.93;;;;;;;;;;5031236;28;20184;-84
2022/05/19 07:41:55;;;;;;;5.23;1.83;;;;;;;;;;5041379;28;20535;-83
2022/05/19 07:44:59;;;;;;;4.53;2.37;;;;;;;;;;5032973;28;20205;-84
2022/05/19 07:48:04;;;;;;;5.27;1.87;;;;;;;;;;5033988;28;20184;-83
2022/05/19 07:51:08;;;;;;;7.90;1.80;;;;;;;;;;5021177;28;20181;-83
2022/05/19 07:54:22;;;;;;;3.33;2.17;;;;;;;;;;5034214;28;20204;-83
2022/05/19 07:57:26;;;;;;;13.83;2.27;;;;;;;;;;5041001;28;20196;-83
2022/05/19 08:00:30;;;;;;;5.77;2.00;;;;;;;;;;5025073;28;20196;-85
2022/05/19 08:03:34;;;;;;;4.13;1.60;;;;;;;;;;5045641;28;20225;-84
2022/05/19 08:06:40;;;;;;;4.97;1.97;;;;;;;;;;5047327;28;20178;-84
2022/05/19 08:16:29;;;;;;;7.27;2.17;;;;;;;;;;5045065;28;20524;-83
2022/05/19 08:19:33;;;;;;;2.80;1.70;;;;;;;;;;5033235;28;20201;-82
2022/05/19 08:22:38;;;;;;;6.63;1.63;;;;;;;;;;5022491;28;20527;-82
2022/05/19 08:25:43;;;;;;;4.10;1.75;;;;;;;;;;5034293;28;20178;-82
2022/05/19 08:28:49;;;;;;;8.93;1.63;;;;;;;;;;5033587;28;20179;-82
2022/05/19 08:31:53;;;;;;;3.97;1.40;;;;;;;;;;5034714;28;20195;-83
2022/05/19 08:34:58;;;;;;;4.70;2.40;;;;;;;;;;5024198;28;20175;-83
2022/05/19 08:38:03;;;;;;;3.92;1.77;;;;;;;;;;5034031;28;20182;-83
2022/05/19 08:41:14;;;;;;;7.20;1.90;;;;;;;;;;5026744;28;20180;-83
2022/05/19 08:44:29;;;;;;;6.00;2.00;;;;;;;;;;5048606;28;20223;-83
2022/05/19 08:47:34;;;;;;;5.57;2.15;;;;;;;;;;5035669;28;20635;-82
2022/05/19 08:50:55;;;;;;;5.38;1.85;;;;;;;;;;5023584;28;20180;-82
2022/05/19 08:54:04;;;;;;;6.13;1.75;;;;;;;;;;5033372;28;20213;-82
2022/05/19 08:57:20;;;;;;;3.20;1.42;;;;;;;;;;5044325;28;20524;-82
2022/05/19 09:00:57;;;;;;;6.28;1.92;;;;;;;;;;5021220;28;20193;-82
2022/05/19 09:04:29;;;;;;;3.60;1.75;;;;;;;;;;5032411;28;20232;-82
2022/05/19 09:07:56;;;;;;;5.70;2.10;;;;;;;;;;5032565;28;20619;-82
2022/05/19 09:11:17;;;;;;;3.28;1.73;;;;;;;;;;5044595;28;20180;-83
2022/05/19 09:14:25;;;;;;;6.45;1.77;;;;;;;;;;5021834;28;20212;-83
2022/05/19 09:17:33;;;;;;;5.75;2.20;;;;;;;;;;5029710;28;20193;-83
2022/05/19 09:20:48;;;;;;;2.85;1.80;;;;;;;;;;5020917;28;20220;-83
2022/05/19 09:23:52;;;;;;;2.90;1.98;;;;;;;;;;5031934;28;20229;-82
2022/05/19 09:26:58;;;;;;;1.98;1.73;;;;;;;;;;5043525;28;20184;-82
2022/05/19 09:30:03;;;;;;;4.95;1.92;;;;;;;;;;5053889;28;20200;-82
2022/05/19 09:33:17;;;;;;;2.58;1.50;;;;;;;;;;5055287;28;20208;-83
2022/05/19 09:36:22;;;;;;;2.25;1.60;;;;;;;;;;5055123;28;20177;-82
2022/05/19 09:39:35;;;;;;;7.07;1.60;;;;;;;;;;5044729;28;20188;-84
2022/05/19 09:43:18;;;;;;;5.72;1.48;;;;;;;;;;5046759;28;20184;-84
2022/05/19 09:46:22;;;;;;;4.97;2.05;;;;;;;;;;5035171;28;20184;-84
2022/05/19 09:49:30;;;;;;;5.50;2.08;;;;;;;;;;5057277;28;20196;-84
2022/05/19 09:52:34;;;;;;;2.30;1.50;;;;;;;;;;5025872;28;20196;-84
2022/05/19 09:55:42;;;;;;;3.35;1.80;;;;;;;;;;5023253;28;20176;-84
2022/05/19 09:58:48;;;;;;;1.73;1.42;;;;;;;;;;5034183;28;20561;-84
2022/05/19 10:02:16;;;;;;;6.30;1.67;;;;;;;;;;5045966;28;20173;-84
2022/05/19 10:05:45;;;;;;;4.70;1.63;;;;;;;;;;5046132;28;20180;-85
2022/05/19 10:09:06;;;;;;;3.13;2.00;;;;;;;;;;5059668;28;20173;-84
2022/05/19 10:12:12;;;;;;;6.93;2.13;;;;;;;;;;5060367;28;20181;-85
2022/05/19 10:15:20;;;;;;;5.30;1.77;;;;;;;;;;5047191;28;20200;-83
2022/05/19 10:18:40;;;;;;;8.75;2.17;;;;;;;;;;5055711;28;20521;-83
2022/05/19 10:21:59;;;;;;;5.70;1.88;;;;;;;;;;5021807;28;20522;-83
2022/05/19 10:25:28;;;;;;;4.88;1.77;;;;;;;;;;5019901;28;20177;-86
2022/05/19 10:32:38;;;;;;;6.45;1.80;;;;;;;;;;5001711;28;20201;-83
2022/05/19 10:36:16;;;;;;;4.00;2.10;;;;;;;;;;4990971;28;20218;-84
2022/05/19 10:39:29;;;;;;;2.95;2.05;;;;;;;;;;4960609;28;20179;-84
2022/05/19 10:42:56;;;;;;;4.05;2.28;;;;;;;;;;4982525;28;20183;-84
2022/05/19 10:46:12;;;;;;;4.13;1.98;;;;;;;;;;4974960;28;20536;-83
2022/05/19 10:49:48;;;;;;;2.20;1.92;;;;;;;;;;4970916;28;20195;-82
2022/05/19 10:52:58;;;;;;;3.72;2.05;;;;;;;;;;4982152;28;20179;-83
2022/05/19 10:56:53;;;;;;;10.77;2.10;;;;;;;;;;4973711;28;20214;-84
2022/05/19 11:00:08;;;;;;;3.47;1.90;;;;;;;;;;4899514;29;20193;-84
2022/05/19 11:03:30;;;;;;;6.25;2.33;;;;;;;;;;4946114;28;20185;-84
2022/05/19 11:06:49;;;;;;;3.92;1.80;;;;;;;;;;4975113;28;20532;-84
2022/05/19 11:10:23;;;;;;;4.95;2.20;;;;;;;;;;4974868;28;20642;-84
2022/05/19 11:13:55;;;;;;;5.63;2.08;;;;;;;;;;4918267;28;20198;-84
2022/05/19 11:17:17;;;;;;;2.63;1.90;;;;;;;;;;4982266;28;20198;-83
2022/05/19 11:20:25;;;;;;;5.25;2.22;;;;;;;;;;4975609;28;20182;-83
2022/05/19 11:23:43;;;;;;;2.65;2.10;;;;;;;;;;4990925;28;20190;-83
2022/05/19 11:27:05;;;;;;;3.65;2.28;;;;;;;;;;4977808;28;20182;-83
2022/05/19 11:30:16;;;;;;;4.03;2.30;;;;;;;;;;4995335;28;20649;-83
2022/05/19 11:33:27;;;;;;;3.65;2.10;;;;;;;;;;4964584;28;20182;-83
2022/05/19 11:36:41;;;;;;;3.28;1.95;;;;;;;;;;4975167;28;20516;-83
2022/05/19 11:40:11;;;;;;;4.18;2.00;;;;;;;;;;4994708;28;20186;-83
2022/05/19 11:43:19;;;;;;;4.53;2.40;;;;;;;;;;4999692;28;20178;-83
2022/05/19 11:46:32;;;;;;;8.30;2.35;;;;;;;;;;4992590;28;20190;-83
2022/05/19 11:56:42;;;;;;;3.42;1.90;;;;;;;;;;4985428;28;20182;-83
2022/05/19 11:59:50;;;;;;;14.60;2.50;;;;;;;;;;4991042;28;20641;-83
2022/05/19 12:03:19;;;;;;;5.47;1.83;;;;;;;;;;4994521;28;20186;-82
2022/05/19 12:06:34;;;;;;;4.47;2.20;;;;;;;;;;4974942;28;20540;-83
2022/05/19 12:09:49;;;;;;;8.00;2.40;;;;;;;;;;4994970;28;20186;-82
2022/05/19 12:12:59;;;;;;;4.38;2.05;;;;;;;;;;5005350;28;20198;-83
2022/05/19 12:16:14;;;;;;;5.47;1.83;;;;;;;;;;5003013;28;20222;-83
2022/05/19 12:19:39;;;;;;;5.50;2.30;;;;;;;;;;4977652;28;20178;-83
2022/05/19 12:22:43;;;;;;;4.05;1.90;;;;;;;;;;4981665;28;20190;-83
2022/05/19 12:25:52;;;;;;;4.35;2.20;;;;;;;;;;4994190;28;20190;-83
2022/05/19 12:29:02;;;;;;;4.45;2.30;;;;;;;;;;4974358;28;20226;-83
2022/05/19 12:32:26;;;;;;;3.20;2.13;;;;;;;;;;4962625;28;20191;-83
2022/05/19 12:35:30;;;;;;;2.45;1.95;;;;;;;;;;4974125;28;20666;-83
2022/05/19 12:38:39;;;;;;;7.60;2.33;;;;;;;;;;4973574;28;20222;-84
2022/05/19 12:41:49;;;;;;;5.32;1.80;;;;;;;;;;4993641;28;20523;-83
2022/05/19 12:44:56;;;;;;;3.17;2.13;;;;;;;;;;4985796;28;20191;-83
2022/05/19 12:48:22;;;;;;;3.28;2.47;;;;;;;;;;4984247;28;20217;-83
2022/05/19 12:51:46;;;;;;;3.90;1.92;;;;;;;;;;4992695;28;20194;-83
2022/05/19 12:55:24;;;;;;;5.00;1.80;;;;;;;;;;5006667;28;20575;-83
2022/05/19 12:58:32;;;;;;;2.13;1.90;;;;;;;;;;4978257;28;20222;-83
2022/05/19 13:01:47;;;;;;;4.80;1.70;;;;;;;;;;4983373;28;20546;-83
2022/05/19 13:05:00;;;;;;;6.15;2.90;;;;;;;;;;4987930;28;20187;-83
2022/05/19 13:08:13;;;;;;;2.53;1.90;;;;;;;;;;4975776;28;20222;-83
2022/05/19 13:11:31;;;;;;;5.25;1.83;;;;;;;;;;4976099;28;20191;-83
2022/05/19 13:14:42;;;;;;;10.55;2.78;;;;;;;;;;5001405;28;20197;-83
2022/05/19 13:17:49;;;;;;;5.53;2.08;;;;;;;;;;4980517;28;20217;-83
2022/05/19 13:21:04;;;;;;;3.60;1.92;;;;;;;;;;4977128;28;20193;-84
2022/05/19 13:24:12;;;;;;;3.55;1.85;;;;;;;;;;4987374;28;20195;-83
2022/05/19 13:30:57;;;;;;;3.65;1.75;;;;;;;;;;4982007;28;20210;-83
2022/05/19 13:34:01;;;;;;;3.30;1.98;;;;;;;;;;4986430;28;20202;-83
2022/05/19 13:37:06;;;;;;;9.77;3.22;;;;;;;;;;4997629;28;20178;-84
2022/05/19 13:40:28;;;;;;;3.75;2.35;;;;;;;;;;4975874;28;20198;-84
2022/05/19 13:43:36;;;;;;;4.50;1.80;;;;;;;;;;4978413;28;20191;-83
2022/05/19 13:46:41;;;;;;;4.82;1.95;;;;;;;;;;4992495;28;20185;-83
2022/05/19 13:49:53;;;;;;;2.58;1.90;;;;;;;;;;5019397;28;20185;-83
2022/05/19 13:53:01;;;;;;;3.25;1.92;;;;;;;;;;5007118;28;20190;-83
2022/05/19 13:56:05;;;;;;;1.98;1.77;;;;;;;;;;4985209;28;20206;-82
2022/05/19 13:59:15;;;;;;;3.08;1.90;;;;;;;;;;4992797;28;20221;-83
2022/05/19 14:02:36;;;;;;;4.13;2.10;;;;;;;;;;4995394;28;20201;-83
2022/05/19 14:05:43;;;;;;;8.02;2.10;;;;;;;;;;4983131;28;20178;-83
2022/05/19 14:08:47;;;;;;;4.05;1.67;;;;;;;;;;5018951;28;20214;-83
2022/05/19 14:12:33;;;;;;;5.07;2.28;;;;;;;;;;4985166;28;20181;-83
2022/05/19 14:15:59;;;;;;;3.47;2.10;;;;;;;;;;4954505;28;20227;-82
2022/05/19 14:19:23;;;;;;;4.13;2.00;;;;;;;;;;4982090;28;20218;-83
2022/05/19 14:22:27;;;;;;;5.30;2.17;;;;;;;;;;4997855;28;20649;-83
2022/05/19 14:25:36;;;;;;;4.22;2.00;;;;;;;;;;4975195;28;20174;-83
2022/05/19 14:28:43;;;;;;;7.65;2.38;;;;;;;;;;4986671;28;20226;-83
2022/05/19 14:31:50;;;;;;;3.17;2.10;;;;;;;;;;4985690;28;20530;-83
2022/05/19 14:35:06;;;;;;;5.47;2.28;;;;;;;;;;4999171;28;20183;-83
2022/05/19 14:38:18;;;;;;;3.88;2.30;;;;;;;;;;4987160;28;20218;-84
2022/05/19 14:44:53;;;;;;;6.45;2.20;;;;;;;;;;5006345;28;20544;-83
2022/05/19 14:47:58;;;;;;;6.82;2.30;;;;;;;;;;5006407;28;20209;-83
2022/05/19 14:51:03;;;;;;;4.05;1.98;;;;;;;;;;4996150;28;20629;-83
2022/05/19 14:54:10;;;;;;;7.60;2.47;;;;;;;;;;4983317;28;20177;-83
2022/05/19 14:57:21;;;;;;;2.70;1.90;;;;;;;;;;4995674;28;20221;-83
2022/05/19 15:00:29;;;;;;;4.78;2.10;;;;;;;;;;5006192;28;20178;-83
2022/05/19 15:03:32;;;;;;;4.30;2.40;;;;;;;;;;4994598;28;20177;-83
2022/05/19 15:06:37;;;;;;;5.20;2.50;;;;;;;;;;4995397;28;20174;-83
2022/05/19 15:09:42;;;;;;;7.60;2.50;;;;;;;;;;4991920;28;20181;-83
2022/05/19 15:12:46;;;;;;;2.95;2.30;;;;;;;;;;4991201;28;20624;-83
2022/05/19 15:15:51;;;;;;;5.50;2.97;;;;;;;;;;5001909;28;20575;-83
2022/05/19 15:18:55;;;;;;;5.65;2.33;;;;;;;;;;4979622;28;20222;-83
2022/05/19 15:21:59;;;;;;;3.40;2.25;;;;;;;;;;4974646;28;20199;-83
2022/05/19 15:25:05;;;;;;;5.35;2.22;;;;;;;;;;4982449;28;20206;-83
2022/05/19 15:28:10;;;;;;;6.57;3.30;;;;;;;;;;4979949;28;20225;-83
2022/05/19 15:31:15;;;;;;;4.32;2.40;;;;;;;;;;4991415;28;20651;-83
2022/05/19 15:34:22;;;;;;;6.25;2.83;;;;;;;;;;4991313;28;20186;-83
2022/05/19 15:37:28;;;;;;;5.20;2.55;;;;;;;;;;4990813;28;20225;-83
2022/05/19 15:40:33;;;;;;;4.97;2.65;;;;;;;;;;5019126;28;20641;-83
2022/05/19 15:43:37;;;;;;;3.10;2.47;;;;;;;;;;4988909;28;20179;-83
2022/05/19 15:46:42;;;;;;;4.90;2.50;;;;;;;;;;4965470;28;20191;-83
2022/05/19 15:49:47;;;;;;;2.88;2.38;;;;;;;;;;4963929;28;20202;-83
2022/05/19 15:52:54;;;;;;;4.07;2.35;;;;;;;;;;4974991;28;20182;-83
2022/05/19 15:55:59;;;;;;;6.20;2.75;;;;;;;;;;4977892;28;20556;-83
2022/05/19 15:59:03;;;;;;;9.00;3.10;;;;;;;;;;4989269;28;20218;-83
2022/05/19 16:02:25;;;;;;;3.90;2.67;;;;;;;;;;4988085;28;20198;-83
2022/05/19 16:05:30;;;;;;;4.90;2.55;;;;;;;;;;4977138;28;20195;-83
2022/05/19 16:08:35;;;;;;;8.38;3.42;;;;;;;;;;4976985;28;20214;-84
2022/05/19 16:11:40;;;;;;;5.43;2.78;;;;;;;;;;4963535;28;20183;-83
2022/05/19 16:14:44;;;;;;;4.68;2.60;;;;;;;;;;4963367;28;20179;-83
2022/05/19 16:17:49;;;;;;;3.58;2.60;;;;;;;;;;4988211;28;20550;-82
2022/05/19 16:20:53;;;;;;;3.30;2.30;;;;;;;;;;4991134;28;20201;-83
2022/05/19 16:24:01;;;;;;;5.00;2.80;;;;;;;;;;5001286;28;20198;-83
2022/05/19 16:27:05;;;;;;;4.75;2.55;;;;;;;;;;5002151;28;20653;-82
2022/05/19 16:30:10;;;;;;;4.45;2.50;;;;;;;;;;5032301;23;20230;-85
2022/05/19 16:33:14;;;;;;;5.50;2.50;;;;;;;;;;5032496;28;20176;-86
2022/05/19 16:36:19;;;;;;;5.30;2.65;;;;;;;;;;5032595;28;20216;-85
2022/05/19 16:39:23;;;;;;;5.88;2.85;;;;;;;;;;5032561;28;20176;-85
2022/05/19 16:42:27;;;;;;;4.63;2.60;;;;;;;;;;5044168;28;20180;-84
2022/05/19 16:45:33;;;;;;;4.30;2.50;;;;;;;;;;5032348;28;20186;-85
2022/05/19 16:48:38;;;;;;;4.35;2.47;;;;;;;;;;5044732;28;20632;-85
2022/05/19 16:51:43;;;;;;;15.40;2.92;;;;;;;;;;5021044;28;20178;-86
2022/05/19 16:58:12;;;;;;;7.05;2.63;;;;;;;;;;5032453;28;20174;-85
2022/05/19 17:01:16;;;;;;;7.43;3.08;;;;;;;;;;5020742;28;20549;-86
2022/05/19 17:04:20;;;;;;;9.10;2.85;;;;;;;;;;5032352;28;20178;-86
2022/05/19 17:07:24;;;;;;;6.28;2.60;;;;;;;;;;5044081;28;20179;-86
2022/05/19 17:10:32;;;;;;;4.93;2.55;;;;;;;;;;5020630;28;20220;-86
2022/05/19 17:13:36;;;;;;;3.00;2.38;;;;;;;;;;5032201;28;20528;-85
2022/05/19 17:16:42;;;;;;;2.80;2.30;;;;;;;;;;5032224;28;20215;-86
2022/05/19 17:19:46;;;;;;;5.22;2.60;;;;;;;;;;5020639;28;20215;-86
2022/05/19 17:22:51;;;;;;;5.10;2.60;;;;;;;;;;5032266;28;20207;-86
2022/05/19 17:25:55;;;;;;;4.07;2.83;;;;;;;;;;5020437;28;20204;-86
2022/05/19 17:28:59;;;;;;;5.10;2.67;;;;;;;;;;5021018;28;20182;-86
2022/05/19 17:32:03;;;;;;;5.25;2.53;;;;;;;;;;5031714;28;20183;-86
2022/05/19 17:35:10;;;;;;;5.38;2.90;;;;;;;;;;5043444;28;20183;-86
2022/05/19 17:38:14;;;;;;;3.85;2.65;;;;;;;;;;5020876;28;20183;-86
2022/05/19 17:41:18;;;;;;;4.95;2.55;;;;;;;;;;5020727;28;20550;-85
2022/05/19 17:44:24;;;;;;;4.60;2.70;;;;;;;;;;5032189;28;20524;-85
2022/05/19 17:47:30;;;;;;;11.10;3.20;;;;;;;;;;5032057;28;20174;-85
2022/05/19 17:50:35;;;;;;;4.95;2.70;;;;;;;;;;5020431;28;20578;-86
2022/05/19 17:53:39;;;;;;;7.63;2.75;;;;;;;;;;5031298;28;20528;-86
2022/05/19 17:56:44;;;;;;;4.82;2.83;;;;;;;;;;5031119;28;20218;-86
2022/05/19 17:59:48;;;;;;;10.68;3.28;;;;;;;;;;5020056;28;20212;-86
2022/05/19 18:02:52;;;;;;;9.93;3.10;;;;;;;;;;5043262;28;20519;-86
2022/05/19 18:05:57;;;;;;;15.15;3.15;;;;;;;;;;5031448;28;20175;-85
2022/05/19 18:09:01;;;;;;;15.27;3.25;;;;;;;;;;5031624;28;20521;-85
2022/05/19 18:12:06;;;;;;;10.90;3.08;;;;;;;;;;5020209;28;20186;-86
2022/05/19 18:18:35;;;;;;;8.67;3.40;;;;;;;;;;5031306;28;20176;-86
2022/05/19 18:21:39;;;;;;;8.53;3.47;;;;;;;;;;5020911;28;20176;-85
2022/05/19 18:24:43;;;;;;;4.67;3.43;;;;;;;;;;5031421;28;20197;-85
2022/05/19 18:27:47;;;;;;;6.10;3.57;;;;;;;;;;5029338;28;20185;-86
2022/05/19 18:30:53;;;;;;;3.50;2.97;;;;;;;;;;5012513;28;20704;-84
2022/05/19 18:33:57;;;;;;;7.10;3.27;;;;;;;;;;5030809;28;20187;-84
2022/05/19 18:37:02;;;;;;;7.13;3.67;;;;;;;;;;5030315;28;20548;-85
2022/05/19 18:44:49;;;;;;;10.17;3.37;;;;;;;;;;5018990;28;20216;-85
2022/05/19 18:46:53;;;;;;;4.83;3.40;;;;;;;;;;5030436;28;20198;-85
2022/05/19 18:49:58;;;;;;;7.00;3.13;;;;;;;;;;5019874;28;20569;-84
2022/05/19 18:53:03;;;;;;;6.73;3.90;;;;;;;;;;5031560;28;20207;-84
2022/05/19 18:56:11;;;;;;;7.10;3.30;;;;;;;;;;5030833;28;20204;-85
2022/05/19 18:59:15;;;;;;;6.43;3.83;;;;;;;;;;5019713;28;20201;-84
2022/05/19 19:02:20;;;;;;;5.63;3.87;;;;;;;;;;5019646;28;20197;-85
2022/05/19 19:05:24;;;;;;;6.13;3.57;;;;;;;;;;5031425;28;20192;-84
2022/05/19 19:08:32;;;;;;;7.17;3.27;;;;;;;;;;5020188;28;20654;-84
2022/05/19 19:11:38;;;;;;;8.17;3.80;;;;;;;;;;5019811;28;20196;-84
2022/05/19 19:14:42;;;;;;;21.90;5.77;;;;;;;;;;5042753;28;20192;-83
2022/05/19 19:17:46;;;;;;;10.53;5.17;;;;;;;;;;5035291;28;20207;-83
2022/05/19 19:20:50;;;;;;;10.40;5.10;;;;;;;;;;5035185;28;20220;-84
2022/05/19 19:23:54;;;;;;;10.27;4.80;;;;;;;;;;5046055;28;20666;-84
2022/05/19 19:26:58;;;;;;;10.13;4.67;;;;;;;;;;5034961;28;20196;-84
2022/05/19 19:30:07;;;;;;;11.97;5.20;;;;;;;;;;5035099;28;20236;-83
2022/05/19 19:33:11;;;;;;;10.23;5.00;;;;;;;;;;5034823;28;20196;-84